Time;durP1;ratioP1;P1;durP2;ratioP2;P2;SDS_P1;SDS_P2;PMS_P1;PMS_P2;Temp;Humidity;BMP_temperature;BMP_pressure;BME280_temperature;BME280_humidity;BME280_pressure;Samples;Min_cycle;Max_cycle;Signal;HPM_P1;HPM_P2
2021/03/18 00:01:10;;;;;;;4.93;2.60;;;3.70;99.90;;;4.45;100.00;98963.84;5092259;28;20902;-80
2021/03/18 00:08:05;;;;;;;8.80;2.47;;;3.70;99.90;;;4.47;100.00;98955.97;5092389;28;20457;-80
2021/03/18 00:14:40;;;;;;;3.83;2.07;;;3.60;99.90;;;4.42;100.00;98945.97;5092078;28;20456;-81
2021/03/18 00:21:14;;;;;;;3.27;2.20;;;3.50;99.90;;;4.36;100.00;98928.34;5096158;28;20430;-80
2021/03/18 00:27:48;;;;;;;6.40;2.20;;;3.50;99.90;;;4.46;100.00;98920.66;5095785;28;20414;-80
2021/03/18 00:34:15;;;;;;;4.70;1.50;;;3.60;99.90;;;4.46;100.00;98923.22;5095564;28;20411;-80
2021/03/18 00:40:47;;;;;;;4.27;2.23;;;3.60;99.90;;;4.34;100.00;98906.94;5095462;28;20430;-80
2021/03/18 00:47:15;;;;;;;4.93;1.80;;;3.40;99.90;;;4.20;100.00;98912.41;5095332;28;20453;-80
2021/03/18 00:53:50;;;;;;;4.30;2.20;;;3.50;99.90;;;4.27;100.00;98908.38;5095458;28;20855;-81
2021/03/18 01:00:28;;;;;;;3.53;1.80;;;3.50;99.90;;;4.25;100.00;98904.28;5095235;28;20477;-80
2021/03/18 01:12:03;;;;;;;8.27;2.40;;;3.60;99.90;;;4.41;100.00;98904.66;5074231;28;20450;-80
2021/03/18 01:18:41;;;;;;;6.37;2.30;;;3.70;99.90;;;4.42;100.00;98909.72;5074490;28;20439;-80
2021/03/18 01:25:16;;;;;;;3.33;2.23;;;3.50;99.90;;;4.29;100.00;98906.50;5074622;28;20420;-80
2021/03/18 01:31:45;;;;;;;4.93;2.00;;;3.40;99.90;;;4.12;100.00;98909.66;5074200;28;20423;-81
2021/03/18 01:38:19;;;;;;;6.07;2.27;;;3.20;99.90;;;4.05;100.00;98918.88;5074159;28;20788;-80
2021/03/18 01:44:52;;;;;;;8.53;2.30;;;3.20;99.90;;;3.66;100.00;98906.53;5073900;28;20431;-80
2021/03/18 01:51:27;;;;;;;2.90;2.47;;;2.80;99.90;;;3.73;100.00;98913.69;5073888;28;20789;-80
2021/03/18 01:57:56;;;;;;;5.90;2.40;;;3.00;99.90;;;3.76;100.00;98923.78;5073812;28;20466;-80
2021/03/18 02:04:22;;;;;;;2.33;1.80;;;3.00;99.90;;;3.85;100.00;98938.56;5073617;28;20415;-80
2021/03/18 02:11:24;;;;;;;4.17;2.50;;;3.10;99.90;;;3.82;100.00;98937.97;5093759;28;20851;-81
2021/03/18 02:18:07;;;;;;;4.63;2.20;;;3.20;99.90;;;3.79;100.00;98940.81;5093642;28;20427;-80
2021/03/18 02:25:00;;;;;;;2.53;1.70;;;3.10;99.90;;;3.81;100.00;98946.69;5093394;28;20503;-81
2021/03/18 02:31:54;;;;;;;2.60;1.40;;;3.00;99.90;;;3.82;100.00;98936.22;5093245;28;20426;-80
2021/03/18 02:38:33;;;;;;;6.87;2.23;;;2.90;99.90;;;3.60;100.00;98917.38;5093375;28;20412;-81
2021/03/18 02:45:11;;;;;;;5.80;2.20;;;2.70;99.90;;;3.50;100.00;98923.28;5093046;28;20447;-80
2021/03/18 02:51:46;;;;;;;2.30;1.70;;;2.40;99.90;;;3.30;100.00;98913.66;5093010;28;20410;-80
2021/03/18 02:58:22;;;;;;;4.00;2.10;;;2.30;99.90;;;2.87;100.00;98913.59;5092948;28;20469;-80
2021/03/18 03:05:24;;;;;;;3.77;2.20;;;2.10;99.90;;;2.73;100.00;98918.16;5092670;28;20541;-80
2021/03/18 03:12:00;;;;;;;4.50;2.20;;;1.80;99.90;;;2.57;100.00;98923.63;5092835;28;20617;-80
2021/03/18 03:18:36;;;;;;;4.50;2.57;;;1.70;99.90;;;2.56;100.00;98923.78;5092601;28;20926;-80
2021/03/18 03:25:15;;;;;;;4.63;2.23;;;1.60;99.90;;;2.31;100.00;98919.59;5092714;28;20415;-81
2021/03/18 03:31:50;;;;;;;2.90;2.00;;;1.30;99.90;;;2.04;100.00;98917.31;5092452;28;20858;-80
2021/03/18 03:38:24;;;;;;;3.73;2.17;;;1.40;99.90;;;2.06;100.00;98914.59;5092542;28;20422;-80
2021/03/18 03:44:57;;;;;;;7.30;2.60;;;1.20;99.90;;;2.05;100.00;98913.78;5092216;28;20485;-80
2021/03/18 03:51:38;;;;;;;2.43;2.20;;;1.10;99.90;;;1.91;100.00;98919.13;5092376;28;20407;-80
2021/03/18 03:58:16;;;;;;;3.63;2.23;;;1.00;99.90;;;1.89;100.00;98914.09;5096279;28;20422;-81
2021/03/18 04:04:51;;;;;;;3.00;2.30;;;1.10;99.90;;;2.00;100.00;98910.72;5096295;28;20419;-81
2021/03/18 04:11:50;;;;;;;4.07;2.70;;;1.20;99.90;;;1.92;100.00;98907.88;5096215;28;21008;-81
2021/03/18 04:18:24;;;;;;;4.07;2.40;;;1.10;99.90;;;2.01;100.00;98899.50;5095829;28;20454;-81
2021/03/18 04:24:53;;;;;;;4.23;2.77;;;1.20;99.90;;;1.98;100.00;98902.25;5095886;28;20431;-81
2021/03/18 04:31:29;;;;;;;9.20;3.10;;;1.10;99.90;;;1.90;100.00;98905.44;5095603;28;20519;-81
2021/03/18 04:38:05;;;;;;;5.97;2.97;;;1.00;99.90;;;1.85;100.00;98904.09;5095655;28;20442;-81
2021/03/18 04:44:43;;;;;;;6.00;3.00;;;1.00;99.90;;;1.89;100.00;98902.94;5095637;28;20462;-84
2021/03/18 04:51:11;;;;;;;9.70;2.70;;;1.00;99.90;;;1.85;100.00;98906.69;5095468;28;20466;-84
2021/03/18 04:57:45;;;;;;;10.07;3.27;;;0.80;99.90;;;1.78;100.00;98915.78;5095272;28;20427;-81
2021/03/18 05:04:22;;;;;;;6.10;3.20;;;0.90;99.90;;;1.79;100.00;98917.44;5094576;28;20641;-81
2021/03/18 05:11:16;;;;;;;8.83;3.10;;;0.80;99.90;;;1.58;100.00;98916.41;5094995;28;20419;-80
2021/03/18 05:17:51;;;;;;;3.57;2.47;;;0.80;99.90;;;1.57;100.00;98907.00;5095491;28;20419;-87
2021/03/18 05:24:19;;;;;;;3.00;2.70;;;0.80;99.90;;;1.65;100.00;98908.13;5094753;28;20512;-80
2021/03/18 05:30:47;;;;;;;8.53;3.40;;;0.70;99.90;;;1.57;100.00;98907.00;5094675;28;20430;-80
2021/03/18 05:37:22;;;;;;;6.43;3.17;;;0.70;99.90;;;1.46;100.00;98902.63;5095094;28;20442;-79
2021/03/18 05:43:57;;;;;;;5.80;2.83;;;0.50;99.90;;;1.32;100.00;98913.91;5094786;28;20466;-78
2021/03/18 05:50:33;;;;;;;3.53;2.67;;;0.30;99.90;;;1.16;100.00;98912.50;5094616;28;20558;-78
2021/03/18 05:57:12;;;;;;;3.73;3.13;;;0.20;99.90;;;1.06;100.00;98902.03;5094586;28;20423;-79
2021/03/18 06:03:40;;;;;;;5.83;3.27;;;0.20;99.90;;;1.05;100.00;98900.38;5094536;28;20466;-78
2021/03/18 06:15:15;;;;;;;8.10;3.97;;;0.10;99.90;;;1.12;100.00;98893.88;5093433;28;20498;-78
2021/03/18 06:21:52;;;;;;;6.60;4.43;;;0.20;99.90;;;1.09;100.00;98888.94;5094084;28;20446;-78
2021/03/18 06:28:30;;;;;;;6.53;4.20;;;0.30;99.90;;;1.15;100.00;98893.66;5094743;28;20410;-78
2021/03/18 06:35:11;;;;;;;9.23;4.27;;;0.50;99.90;;;1.20;100.00;98904.47;5094725;28;20419;-79
2021/03/18 06:41:45;;;;;;;8.90;4.93;;;0.40;99.90;;;1.24;100.00;98893.03;5094534;28;20839;-78
2021/03/18 06:48:38;;;;;;;10.13;5.47;;;0.40;99.90;;;1.45;100.00;98898.41;5094306;28;20514;-78
2021/03/18 06:55:39;;;;;;;15.33;6.23;;;0.80;99.90;;;1.65;100.00;98899.56;5094550;28;20539;-78
2021/03/18 07:02:09;;;;;;;14.30;6.67;;;1.00;99.90;;;1.84;100.00;98894.75;5094089;28;20438;-79
2021/03/18 07:08:41;;;;;;;17.40;5.67;;;1.10;99.90;;;1.97;100.00;98905.81;5093909;28;20916;-79
2021/03/18 07:15:42;;;;;;;10.73;6.20;;;1.40;99.90;;;2.21;100.00;98892.84;5094287;28;20410;-78
2021/03/18 07:22:23;;;;;;;10.47;5.97;;;1.60;99.90;;;2.39;100.00;98887.16;5093911;28;20435;-79
2021/03/18 07:29:13;;;;;;;11.10;5.70;;;1.80;99.90;;;2.54;100.00;98883.41;5098117;28;20789;-79
2021/03/18 07:35:59;;;;;;;10.27;5.87;;;1.90;99.90;;;2.66;100.00;98868.75;5097971;28;20445;-79
2021/03/18 07:42:46;;;;;;;12.33;6.07;;;1.90;99.90;;;2.82;100.00;98865.81;5097949;28;20557;-79
2021/03/18 07:49:38;;;;;;;;;;;;;;;;;;;;;
2021/03/18 07:56:19;;;;;;;14.47;5.87;;;2.40;99.90;;;3.24;100.00;98843.56;5097822;28;20933;-79
2021/03/18 08:03:30;;;;;;;11.37;4.10;;;2.50;99.90;;;3.37;100.00;98842.44;5097636;28;20497;-79
2021/03/18 08:14:16;;;;;;;5.63;3.37;;;2.80;99.90;;;3.59;100.00;98823.47;5097250;28;20450;-79
2021/03/18 08:21:08;;;;;;;9.70;4.00;;;2.90;99.90;;;3.71;100.00;98822.50;5097224;28;20469;-79
2021/03/18 08:27:41;;;;;;;7.30;4.03;;;3.00;99.90;;;3.89;100.00;98827.91;5096657;28;20406;-79
2021/03/18 08:34:25;;;;;;;6.40;4.07;;;3.30;99.90;;;4.01;100.00;98813.97;5096985;28;20422;-78
2021/03/18 08:41:02;;;;;;;5.70;3.40;;;3.40;99.90;;;4.12;100.00;98813.91;5096060;28;20501;-78
2021/03/18 08:47:43;;;;;;;4.20;2.50;;;3.60;99.90;;;4.11;84.95;98809.66;5096031;28;20957;-79
2021/03/18 08:54:55;;;;;;;4.30;2.47;;;3.70;99.50;;;4.26;85.95;98815.34;5096167;28;20433;-79
2021/03/18 09:01:26;;;;;;;3.20;1.73;;;3.90;98.80;;;4.41;81.20;98816.63;5096182;28;20419;-79
2021/03/18 09:08:06;;;;;;;5.10;2.07;;;4.00;97.60;;;4.59;77.39;98815.06;5096339;28;20446;-79
2021/03/18 09:14:51;;;;;;;6.70;2.90;;;4.00;97.30;;;4.65;77.93;98806.78;5095778;28;20510;-79
2021/03/18 09:21:22;;;;;;;4.00;2.33;;;4.10;97.50;;;4.84;77.12;98800.84;5095893;28;20473;-79
2021/03/18 09:27:53;;;;;;;4.10;2.70;;;4.30;96.60;;;5.01;73.65;98790.66;5096166;28;20422;-79
2021/03/18 09:34:35;;;;;;;9.10;2.43;;;4.50;96.10;;;5.26;71.97;98794.53;5095756;28;20505;-79
2021/03/18 09:41:24;;;;;;;8.13;2.20;;;4.80;95.80;;;5.54;71.42;98787.72;5095654;28;20419;-79
2021/03/18 09:48:00;;;;;;;8.37;2.33;;;5.10;95.40;;;5.70;69.24;98787.16;5095530;28;21027;-79
2021/03/18 09:54:36;;;;;;;4.97;2.37;;;5.30;95.40;;;5.82;64.39;98780.88;5095122;28;20520;-79
2021/03/18 10:01:26;;;;;;;8.40;3.27;;;5.40;93.80;;;5.88;68.08;98795.91;5095480;28;20470;-79
2021/03/18 10:08:01;;;;;;;8.63;4.53;;;5.30;98.40;;;5.71;82.63;98793.97;5094365;28;20779;-79
2021/03/18 10:15:00;;;;;;;5.37;3.80;;;5.10;99.30;;;5.72;83.21;98790.44;5094264;28;20926;-79
2021/03/18 10:21:35;;;;;;;5.13;3.90;;;5.00;99.70;;;5.71;85.26;98771.44;5094067;28;21085;-79
2021/03/18 10:28:13;;;;;;;5.97;3.97;;;5.10;99.00;;;5.75;83.60;98759.03;5093988;28;20914;-78
2021/03/18 10:34:53;;;;;;;6.43;3.07;;;5.10;98.10;;;5.83;81.97;98741.78;5093868;28;20426;-78
2021/03/18 10:41:26;;;;;;;9.60;3.53;;;5.10;96.70;;;5.81;75.61;98737.69;5094074;28;20430;-79
2021/03/18 10:48:06;;;;;;;6.93;2.40;;;5.30;97.70;;;6.11;77.30;98742.69;5093689;28;20465;-79
2021/03/18 10:54:37;;;;;;;3.47;2.40;;;5.70;96.20;;;6.27;68.73;98731.72;5093549;28;20972;-79
2021/03/18 11:05:29;;;;;;;7.83;2.70;;;5.90;95.10;;;6.46;64.12;98729.03;5093401;28;20435;-78
2021/03/18 11:16:43;;;;;;;7.40;3.97;;;6.00;96.20;;;6.45;72.30;98728.25;5093627;28;20584;-78
2021/03/18 11:30:38;;;;;;;8.80;3.70;;;5.90;96.00;;;6.55;71.28;98710.81;5093681;28;20451;-79
2021/03/18 11:37:38;;;;;;;4.67;3.00;;;6.00;94.70;;;6.47;68.17;98702.91;5093489;28;20411;-79
2021/03/18 11:44:14;;;;;;;6.60;3.47;;;5.90;95.20;;;6.35;70.13;98717.03;5092937;28;20514;-79
2021/03/18 11:50:48;;;;;;;4.77;3.50;;;5.70;96.20;;;6.11;77.05;98716.75;5092907;28;20529;-79
2021/03/18 11:57:29;;;;;;;5.67;3.50;;;5.30;97.40;;;5.86;84.03;98714.78;5093953;28;20422;-79
2021/03/18 12:04:04;;;;;;;15.03;4.53;;;5.10;99.80;;;5.67;88.51;98704.41;5092949;28;20536;-78
2021/03/18 12:10:44;;;;;;;15.20;5.90;;;5.00;99.90;;;5.68;88.64;98695.69;5093109;28;20466;-79
2021/03/18 12:17:16;;;;;;;9.90;4.50;;;5.10;99.40;;;5.78;85.58;98686.09;5096886;28;20426;-79
2021/03/18 12:23:53;;;;;;;5.57;3.73;;;5.10;98.20;;;5.83;86.84;98681.31;5096531;28;20501;-79
2021/03/18 12:30:32;;;;;;;5.73;3.80;;;5.00;99.50;;;5.73;88.66;98678.72;5097040;28;20914;-78
2021/03/18 12:37:08;;;;;;;7.50;4.33;;;5.00;99.90;;;5.79;91.70;98661.78;5096569;28;20442;-78
2021/03/18 12:43:37;;;;;;;6.57;4.13;;;5.10;99.90;;;5.90;92.38;98661.66;5096728;28;21016;-78
2021/03/18 12:50:07;;;;;;;6.50;3.97;;;5.20;99.90;;;6.01;92.16;98646.69;5096544;28;20419;-78
2021/03/18 12:56:43;;;;;;;9.80;6.07;;;5.40;99.90;;;6.16;88.51;98634.06;5096309;28;20443;-79
2021/03/18 13:03:22;;;;;;;7.90;4.30;;;5.40;99.10;;;6.19;84.29;98618.19;5096026;28;20854;-78
2021/03/18 13:10:01;;;;;;;5.23;3.73;;;5.50;98.70;;;6.34;83.28;98600.34;5096053;28;20407;-79
2021/03/18 13:16:55;;;;;;;6.13;3.43;;;5.60;98.90;;;6.43;83.41;98592.47;5096372;28;20415;-78
2021/03/18 13:23:38;;;;;;;8.63;3.87;;;5.70;98.10;;;6.47;81.62;98591.22;5096029;28;20505;-79
2021/03/18 13:30:22;;;;;;;7.40;3.50;;;5.60;98.30;;;6.36;77.60;98578.44;5096031;28;20423;-79
2021/03/18 13:36:56;;;;;;;4.80;3.33;;;5.60;97.70;;;6.39;78.99;98572.13;5095424;28;20423;-79
2021/03/18 13:43:33;;;;;;;15.53;4.13;;;5.70;97.40;;;6.35;78.17;98566.41;5095660;28;20450;-79
2021/03/18 13:50:19;;;;;;;6.77;3.50;;;5.50;98.50;;;6.24;78.80;98569.25;5095839;28;20427;-79
2021/03/18 13:57:00;;;;;;;4.87;3.47;;;5.50;98.40;;;6.31;79.50;98553.88;5095450;28;20466;-78
2021/03/18 14:03:32;;;;;;;7.37;2.97;;;5.60;97.70;;;6.33;77.79;98546.75;5094821;28;20505;-79
2021/03/18 14:10:14;;;;;;;5.30;3.53;;;5.60;97.00;;;6.41;78.61;98533.84;5095156;28;20540;-79
2021/03/18 14:16:59;;;;;;;3.90;3.10;;;5.80;97.70;;;6.47;76.07;98515.88;5094982;28;20403;-79
2021/03/18 14:23:38;;;;;;;6.20;3.20;;;5.80;97.50;;;6.73;73.70;98508.16;5094508;28;20493;-79
2021/03/18 14:30:24;;;;;;;8.40;2.93;;;6.10;96.70;;;6.83;73.19;98493.28;5094429;28;20414;-79
2021/03/18 14:37:09;;;;;;;4.77;3.23;;;6.20;96.10;;;6.98;69.53;98488.31;5093564;28;20418;-79
2021/03/18 14:44:06;;;;;;;9.80;2.97;;;6.20;93.20;;;7.03;64.75;98473.09;5094445;28;20470;-79
2021/03/18 14:50:44;;;;;;;5.00;2.90;;;6.40;95.30;;;7.19;66.91;98461.94;5094347;28;20434;-79
2021/03/18 14:57:50;;;;;;;4.00;2.47;;;6.40;95.30;;;7.26;64.53;98468.16;5094651;28;20461;-79
2021/03/18 15:20:31;;;;;;;11.40;3.70;;;6.70;94.30;;;7.40;63.01;98447.56;5093956;28;20419;-78
2021/03/18 15:27:05;;;;;;;8.37;3.57;;;6.60;93.90;;;7.43;63.28;98443.84;5093833;28;20438;-79
2021/03/18 15:33:53;;;;;;;10.07;3.63;;;6.90;94.20;;;7.41;62.49;98431.00;5093684;28;20457;-79
2021/03/18 15:40:30;;;;;;;8.33;3.50;;;6.90;94.10;;;7.40;61.65;98408.56;5093599;28;20461;-79
2021/03/18 15:47:06;;;;;;;4.80;3.60;;;6.80;92.50;;;7.26;59.43;98406.53;5093815;28;20840;-78
2021/03/18 15:53:37;;;;;;;7.63;3.93;;;6.70;93.50;;;7.26;62.37;98401.34;5097067;28;20510;-79
2021/03/18 16:00:07;;;;;;;4.80;3.60;;;6.70;92.80;;;7.20;62.91;98401.97;5096897;28;20511;-78
2021/03/18 16:06:41;;;;;;;6.80;3.30;;;6.50;93.80;;;7.14;61.61;98412.19;5096726;28;20414;-78
2021/03/18 16:17:56;;;;;;;7.57;3.80;;;6.50;94.50;;;7.01;65.76;98410.03;5097546;28;20415;-79
2021/03/18 16:24:32;;;;;;;11.30;4.93;;;6.20;96.00;;;6.84;70.29;98410.91;5097204;28;20848;-78
2021/03/18 16:31:12;;;;;;;8.37;5.13;;;6.00;96.70;;;6.55;78.06;98401.66;5096993;28;20469;-79
2021/03/18 16:38:11;;;;;;;8.27;4.57;;;5.90;96.70;;;6.59;77.03;98402.16;5096883;28;20438;-78
2021/03/18 16:45:21;;;;;;;5.97;4.63;;;5.80;98.70;;;6.57;77.46;98399.72;5096654;28;20466;-78
2021/03/18 16:51:51;;;;;;;8.20;4.90;;;6.00;98.10;;;6.51;79.87;98397.75;5096176;28;20465;-79
2021/03/18 16:58:35;;;;;;;6.97;5.17;;;5.90;97.30;;;6.57;77.92;98378.94;5095419;28;20824;-79
2021/03/18 17:05:11;;;;;;;7.77;4.10;;;6.00;97.20;;;6.62;77.50;98375.88;5095136;28;20970;-81
2021/03/18 17:11:48;;;;;;;7.97;4.20;;;6.00;97.90;;;6.61;78.67;98355.25;5094631;28;20551;-81
2021/03/18 17:18:23;;;;;;;7.13;4.63;;;5.90;99.00;;;6.53;80.00;98356.00;5094845;28;20922;-80
2021/03/18 17:24:51;;;;;;;27.20;12.73;;;5.90;97.90;;;6.54;80.82;98358.47;5095073;28;20562;-81
2021/03/18 17:31:25;;;;;;;8.47;4.60;;;5.90;97.90;;;6.52;77.89;98351.78;5094582;28;20457;-80
2021/03/18 17:38:00;;;;;;;7.73;5.73;;;5.80;97.50;;;6.48;78.90;98343.50;5094350;28;20407;-80
2021/03/18 17:44:34;;;;;;;8.60;5.40;;;5.80;96.70;;;6.42;76.88;98343.28;5094145;28;20551;-79
2021/03/18 17:51:03;;;;;;;11.40;5.73;;;5.80;96.80;;;6.37;76.17;98345.53;5094089;28;20476;-79
2021/03/18 17:57:31;;;;;;;9.63;5.00;;;5.70;97.00;;;6.35;79.12;98332.69;5093982;28;20457;-79
2021/03/18 18:04:06;;;;;;;10.53;6.10;;;5.70;97.30;;;6.37;78.57;98341.16;5093660;28;20497;-79
2021/03/18 18:10:41;;;;;;;11.60;6.17;;;5.70;98.00;;;6.35;80.85;98332.69;5093758;28;20416;-79
2021/03/18 18:17:34;;;;;;;9.07;6.00;;;5.50;99.40;;;6.27;82.81;98340.44;5093749;28;20482;-79
2021/03/18 18:24:02;;;;;;;10.60;5.13;;;5.60;99.20;;;6.20;85.29;98333.41;5093462;28;20453;-80
2021/03/18 18:30:38;;;;;;;13.23;5.37;;;5.50;99.80;;;6.11;86.93;98324.75;5093486;28;20427;-82
2021/03/18 18:37:12;;;;;;;8.90;5.23;;;5.30;99.90;;;6.10;87.67;98327.50;5092967;28;20455;-80
2021/03/18 18:43:46;;;;;;;10.60;5.10;;;5.30;99.90;;;6.03;87.74;98332.47;5093310;28;20960;-80
2021/03/18 18:50:27;;;;;;;7.17;5.17;;;5.30;99.90;;;5.99;90.00;98326.78;5093139;28;20932;-80
2021/03/18 18:56:56;;;;;;;7.90;4.67;;;5.20;99.90;;;5.88;90.33;98324.41;5092860;28;20461;-79
2021/03/18 19:03:39;;;;;;;10.60;5.43;;;4.90;99.90;;;5.82;90.60;98313.81;5092762;28;20418;-79
2021/03/18 19:10:17;;;;;;;8.77;4.77;;;4.90;99.90;;;5.72;91.32;98302.69;5093135;28;20762;-80
2021/03/18 19:16:59;;;;;;;11.83;5.67;;;4.80;99.90;;;5.66;91.43;98298.13;5092938;28;20419;-80
2021/03/18 19:23:27;;;;;;;11.47;5.13;;;4.80;99.90;;;5.59;92.74;98296.09;5092175;28;20448;-80
2021/03/18 19:29:55;;;;;;;10.90;4.97;;;4.70;99.90;;;5.55;93.62;98289.56;5092994;28;20415;-85
2021/03/18 19:36:30;;;;;;;10.30;5.67;;;4.60;99.90;;;5.54;94.70;98285.38;5092756;28;20414;-79
2021/03/18 19:43:10;;;;;;;11.93;5.90;;;4.70;99.90;;;5.35;95.10;98275.13;5092804;28;20771;-80
2021/03/18 19:49:44;;;;;;;7.80;5.40;;;4.60;99.90;;;5.40;96.17;98266.91;5092550;28;20470;-80
2021/03/18 19:56:13;;;;;;;9.90;5.40;;;4.60;99.90;;;5.36;95.16;98271.59;5092858;28;20465;-80
2021/03/18 20:02:42;;;;;;;7.87;5.13;;;4.40;99.90;;;5.26;94.30;98244.13;5092518;28;20451;-80
2021/03/18 20:09:17;;;;;;;9.27;5.57;;;4.40;99.90;;;5.09;95.20;98232.78;5092421;28;20481;-80
2021/03/18 20:20:50;;;;;;;11.00;4.93;;;4.40;99.90;;;5.03;95.85;98226.41;5092698;28;20865;-80
2021/03/18 20:27:24;;;;;;;11.30;5.10;;;4.20;99.90;;;5.11;99.14;98224.84;5092136;28;20992;-80
2021/03/18 20:33:58;;;;;;;11.23;5.10;;;4.40;99.90;;;5.21;99.28;98220.41;5092311;28;20793;-80
2021/03/18 20:40:36;;;;;;;6.60;4.50;;;4.60;99.90;;;5.32;96.73;98223.59;5095650;28;20540;-80
2021/03/18 20:47:10;;;;;;;9.17;4.37;;;4.60;99.90;;;5.29;96.67;98212.69;5095546;28;20450;-80
2021/03/18 20:53:45;;;;;;;6.90;4.00;;;4.70;99.90;;;5.35;96.75;98212.91;5095494;28;20484;-80
2021/03/18 21:00:15;;;;;;;9.37;5.37;;;4.70;99.90;;;5.30;98.44;98215.16;5095107;28;20403;-80
2021/03/18 21:06:49;;;;;;;6.83;2.80;;;4.70;99.90;;;5.29;99.76;98200.56;5094962;28;20410;-80
2021/03/18 21:13:23;;;;;;;5.00;3.07;;;4.70;99.90;;;5.28;100.00;98205.88;5095062;28;20418;-80
2021/03/18 21:20:21;;;;;;;10.10;2.93;;;4.60;99.90;;;5.21;100.00;98195.28;5094611;28;20427;-80
2021/03/18 21:26:48;;;;;;;10.37;3.40;;;4.50;99.90;;;5.21;100.00;98203.06;5094633;28;20469;-80
2021/03/18 21:33:16;;;;;;;7.50;3.20;;;4.70;99.90;;;5.20;100.00;98214.44;5094561;28;20780;-85
2021/03/18 21:39:50;;;;;;;4.40;2.90;;;4.40;99.90;;;5.03;100.00;98203.06;5094479;28;20459;-80
2021/03/18 21:46:24;;;;;;;3.73;2.87;;;4.30;99.90;;;5.16;100.00;98196.72;5094033;28;20469;-80
2021/03/18 21:52:51;;;;;;;6.97;3.07;;;4.30;99.90;;;5.09;100.00;98196.50;5093845;28;20515;-80
2021/03/18 21:59:26;;;;;;;7.57;3.20;;;4.30;99.90;;;5.12;100.00;98190.22;5094186;28;20434;-80
2021/03/18 22:06:01;;;;;;;3.30;2.30;;;4.40;99.90;;;5.15;100.00;98185.53;5093883;28;20532;-87
2021/03/18 22:12:36;;;;;;;4.37;2.97;;;4.40;99.90;;;5.03;100.00;98181.56;5093663;28;20418;-80
2021/03/18 22:24:09;;;;;;;7.83;3.10;;;4.30;99.90;;;4.98;100.00;98170.81;5073300;28;20534;-80
2021/03/18 22:30:43;;;;;;;6.77;3.30;;;4.20;99.90;;;4.79;100.00;98169.16;5073436;28;20542;-79
2021/03/18 22:37:17;;;;;;;4.90;3.17;;;3.90;99.90;;;4.83;100.00;98161.94;5072824;28;20450;-79
2021/03/18 22:43:52;;;;;;;8.43;2.87;;;4.10;99.90;;;4.65;100.00;98163.72;5073110;28;20444;-80
2021/03/18 22:50:20;;;;;;;3.50;2.97;;;3.70;99.90;;;4.36;100.00;98151.75;5072859;28;20420;-80
2021/03/18 22:56:47;;;;;;;4.73;3.10;;;3.10;99.90;;;3.76;100.00;98144.56;5072728;28;20459;-80
2021/03/18 23:03:23;;;;;;;6.17;3.63;;;3.00;99.90;;;4.13;100.00;98137.56;5072473;28;20423;-80
2021/03/18 23:09:57;;;;;;;4.97;3.27;;;3.30;99.90;;;4.09;100.00;98128.50;5072949;28;20427;-79
2021/03/18 23:16:32;;;;;;;4.63;3.30;;;3.20;99.90;;;3.85;100.00;98130.78;5072673;28;20420;-80
2021/03/18 23:23:19;;;;;;;6.27;4.20;;;2.80;99.90;;;3.74;100.00;98128.38;5092753;28;20472;-80
2021/03/18 23:29:47;;;;;;;6.97;4.13;;;2.80;99.90;;;3.70;100.00;98121.84;5093180;28;20418;-79
2021/03/18 23:36:20;;;;;;;5.30;4.07;;;2.80;99.90;;;3.70;100.00;98116.69;5092562;28;20822;-80
2021/03/18 23:42:55;;;;;;;7.80;5.10;;;2.70;99.90;;;3.78;100.00;98116.78;5092652;28;20835;-80
2021/03/18 23:49:29;;;;;;;5.47;4.03;;;3.00;99.90;;;3.66;100.00;98123.09;5092594;28;20918;-80
2021/03/18 23:56:03;;;;;;;7.90;4.70;;;2.80;99.90;;;3.47;100.00;98109.28;5092344;28;20480;-80
